createdAt,value
2018-06-11T00:00:07.790Z,15.55
2018-06-11T00:02:36.104Z,15.55
2018-06-11T00:05:04.401Z,15.35
2018-06-11T00:07:32.742Z,15.37
2018-06-11T00:10:01.013Z,15.22
2018-06-11T00:12:30.375Z,15.18
2018-06-11T00:14:58.633Z,15.20
2018-06-11T00:17:26.945Z,15.21
2018-06-11T00:19:55.206Z,15.17
2018-06-11T00:22:23.522Z,15.11
2018-06-11T00:24:51.773Z,15.01
2018-06-11T00:27:20.090Z,14.90
2018-06-11T00:29:48.354Z,14.88
2018-06-11T00:32:16.641Z,14.90
2018-06-11T00:34:44.915Z,14.86
2018-06-11T00:37:13.187Z,15.06
2018-06-11T00:39:41.489Z,15.05
2018-06-11T00:42:10.761Z,15.17
2018-06-11T00:44:39.037Z,15.28
2018-06-11T00:47:07.319Z,15.32
2018-06-11T00:49:35.626Z,15.70
2018-06-11T00:52:04.898Z,15.76
2018-06-11T00:54:33.223Z,15.83
2018-06-11T00:57:01.475Z,15.69
2018-06-11T00:59:29.747Z,15.43
2018-06-11T01:01:57.997Z,15.51
2018-06-11T01:04:26.285Z,15.48
2018-06-11T01:06:54.557Z,15.40
2018-06-11T01:09:22.838Z,15.10
2018-06-11T01:11:51.117Z,15.34
2018-06-11T01:14:19.406Z,15.35
2018-06-11T01:16:47.652Z,15.28
2018-06-11T01:19:15.905Z,15.27
2018-06-11T01:21:44.189Z,15.27
2018-06-11T01:24:12.485Z,15.10
2018-06-11T01:26:40.797Z,15.31
2018-06-11T01:29:09.084Z,15.33
2018-06-11T01:31:37.373Z,15.31
2018-06-11T01:34:05.664Z,15.49
2018-06-11T01:36:33.941Z,15.54
2018-06-11T01:39:02.223Z,15.44
2018-06-11T01:41:31.579Z,15.44
2018-06-11T01:43:59.837Z,15.49
2018-06-11T01:46:28.141Z,15.59
2018-06-11T01:48:56.416Z,15.78
2018-06-11T01:51:24.714Z,15.91
2018-06-11T01:53:54.039Z,15.93
2018-06-11T01:56:22.346Z,16.10
2018-06-11T01:58:50.597Z,15.88
2018-06-11T02:01:19.901Z,15.83
2018-06-11T02:03:48.173Z,15.96
2018-06-11T02:06:16.437Z,15.99
2018-06-11T02:08:44.733Z,15.98
2018-06-11T02:11:12.976Z,16.01
2018-06-11T02:13:41.250Z,16.11
2018-06-11T02:16:09.490Z,15.84
2018-06-11T02:18:37.779Z,16.12
2018-06-11T02:21:06.054Z,15.98
2018-06-11T02:23:34.385Z,15.89
2018-06-11T02:26:02.716Z,15.90
2018-06-11T02:28:31.008Z,15.96
2018-06-11T02:30:59.313Z,15.74
2018-06-11T02:33:27.618Z,15.73
2018-06-11T02:35:55.894Z,15.68
2018-06-11T02:38:24.185Z,15.77
2018-06-11T02:40:52.453Z,15.85
2018-06-11T02:43:20.768Z,15.65
2018-06-11T02:45:49.044Z,15.67
2018-06-11T02:48:17.346Z,15.68
2018-06-11T02:50:45.622Z,15.52
2018-06-11T02:53:13.922Z,15.48
2018-06-11T02:55:42.207Z,15.61
2018-06-11T02:58:10.506Z,15.75
2018-06-11T03:00:38.820Z,15.73
2018-06-11T03:03:07.101Z,15.62
2018-06-11T03:05:35.389Z,15.45
2018-06-11T03:08:03.763Z,15.52
2018-06-11T03:10:32.066Z,15.46
2018-06-11T03:13:00.336Z,15.74
2018-06-11T03:15:28.664Z,15.72
2018-06-11T03:17:56.938Z,15.63
2018-06-11T03:20:25.232Z,15.86
2018-06-11T03:22:53.570Z,15.78
2018-06-11T03:25:21.888Z,15.74
2018-06-11T03:27:50.159Z,15.56
2018-06-11T03:30:18.469Z,15.50
2018-06-11T03:32:46.733Z,15.60
2018-06-11T03:35:15.007Z,15.61
2018-06-11T03:37:43.299Z,15.79
2018-06-11T03:40:11.558Z,15.96
2018-06-11T03:42:39.861Z,15.73
2018-06-11T03:45:08.129Z,15.56
2018-06-11T03:47:36.413Z,15.53
2018-06-11T03:50:04.737Z,15.67
2018-06-11T03:52:33.077Z,15.73
2018-06-11T03:55:01.369Z,15.94
2018-06-11T03:57:29.689Z,15.86
2018-06-11T03:59:59.019Z,15.72
2018-06-11T04:02:27.338Z,15.82
2018-06-11T04:04:55.613Z,16.08
2018-06-11T04:07:25.010Z,16.01
2018-06-11T04:09:53.280Z,15.99
2018-06-11T04:12:21.569Z,15.91
2018-06-11T04:14:50.153Z,15.70
2018-06-11T04:17:18.446Z,15.86
2018-06-11T04:19:46.713Z,15.89
2018-06-11T04:22:15.053Z,16.06
2018-06-11T04:24:43.345Z,15.89
2018-06-11T04:27:11.621Z,16.07
2018-06-11T04:29:39.941Z,16.07
2018-06-11T04:32:08.203Z,16.22
2018-06-11T04:34:37.558Z,16.27
2018-06-11T04:37:05.873Z,16.20
2018-06-11T04:39:34.184Z,16.38
2018-06-11T04:42:02.465Z,16.46
2018-06-11T04:44:30.765Z,16.32
2018-06-11T04:46:59.037Z,16.39
2018-06-11T04:49:27.349Z,16.10
2018-06-11T04:51:55.630Z,16.16
2018-06-11T04:54:23.956Z,15.98
2018-06-11T04:56:52.226Z,16.16
2018-06-11T04:59:20.545Z,16.40
2018-06-11T05:01:48.833Z,16.30
2018-06-11T05:04:17.153Z,16.22
2018-06-11T05:06:46.440Z,16.52
2018-06-11T05:09:14.704Z,16.78
2018-06-11T05:11:43.007Z,16.67
2018-06-11T05:14:11.292Z,16.80
2018-06-11T05:16:41.623Z,16.35
2018-06-11T05:19:09.889Z,16.60
2018-06-11T05:21:38.181Z,16.35
2018-06-11T05:24:06.498Z,16.60
2018-06-11T05:26:34.782Z,16.76
2018-06-11T05:29:03.093Z,16.84
2018-06-11T05:31:31.401Z,16.78
2018-06-11T05:33:59.687Z,16.62
2018-06-11T05:36:28.012Z,16.62
2018-06-11T05:38:57.316Z,16.96
2018-06-11T05:41:25.622Z,17.07
2018-06-11T05:43:54.877Z,16.95
2018-06-11T05:46:23.189Z,16.93
2018-06-11T05:48:51.469Z,17.44
2018-06-11T05:51:20.731Z,17.05
2018-06-11T05:53:49.053Z,17.49
2018-06-11T05:56:17.401Z,17.59
2018-06-11T05:58:45.699Z,18.01
2018-06-11T06:01:13.992Z,18.05
2018-06-11T06:03:42.331Z,17.92
2018-06-11T06:06:10.607Z,18.24
2018-06-11T06:08:38.950Z,17.59
2018-06-11T06:11:07.197Z,18.43
2018-06-11T06:13:35.510Z,18.20
2018-06-11T06:16:03.769Z,17.93
2018-06-11T06:18:32.061Z,18.39
2018-06-11T06:21:03.948Z,18.18
2018-06-11T06:23:32.445Z,18.14
2018-06-11T06:26:01.841Z,17.90
2018-06-11T06:28:30.222Z,18.16
2018-06-11T06:30:58.493Z,17.97
2018-06-11T06:33:27.809Z,17.53
2018-06-11T06:35:56.083Z,17.67
2018-06-11T06:38:24.361Z,18.17
2018-06-11T06:40:52.652Z,17.84
2018-06-11T06:43:22.201Z,17.86
2018-06-11T06:45:50.489Z,17.69
2018-06-11T06:48:18.769Z,17.48
2018-06-11T06:50:47.073Z,17.33
2018-06-11T06:53:15.483Z,17.49
2018-06-11T06:55:43.815Z,17.75
2018-06-11T06:58:12.077Z,17.55
2018-06-11T07:00:40.345Z,17.63
2018-06-11T07:03:08.617Z,18.05
2018-06-11T07:05:36.905Z,18.53
2018-06-11T07:08:05.226Z,18.95
2018-06-11T07:10:33.534Z,19.14
2018-06-11T07:13:01.942Z,18.61
2018-06-11T07:21:11.878Z,18.36
2018-06-11T07:23:40.177Z,18.80
2018-06-11T07:26:08.481Z,18.71
2018-06-11T07:28:36.754Z,19.06
2018-06-11T07:31:05.030Z,19.21
2018-06-11T07:33:33.328Z,18.56
2018-06-11T07:36:01.590Z,18.86
2018-06-11T07:38:31.004Z,19.21
2018-06-11T07:40:59.318Z,19.38
2018-06-11T07:43:27.637Z,19.33
2018-06-11T07:45:55.913Z,18.93
2018-06-11T07:48:24.216Z,18.81
2018-06-11T07:50:52.512Z,18.74
2018-06-11T07:53:20.853Z,18.17
2018-06-11T07:55:49.129Z,18.50
2018-06-11T07:58:18.413Z,19.75
2018-06-11T08:00:46.707Z,19.18
2018-06-11T08:03:15.045Z,19.17
2018-06-11T08:05:43.326Z,19.72
2018-06-11T08:08:11.641Z,19.89
2018-06-11T08:10:39.941Z,19.27
2018-06-11T08:13:08.202Z,19.55
2018-06-11T08:15:36.505Z,19.34
2018-06-11T08:18:04.842Z,19.33
2018-06-11T08:20:33.177Z,19.25
2018-06-11T08:23:01.471Z,19.55
2018-06-11T08:25:29.811Z,19.70
2018-06-11T08:27:58.080Z,19.74
2018-06-11T08:30:26.429Z,20.08
2018-06-11T08:32:55.697Z,19.99
2018-06-11T08:35:23.996Z,19.90
2018-06-11T08:37:52.261Z,19.23
2018-06-11T08:40:20.551Z,19.24
2018-06-11T08:42:48.810Z,18.83
2018-06-11T08:45:17.101Z,19.97
2018-06-11T08:47:45.453Z,19.35
2018-06-11T08:50:13.759Z,19.79
2018-06-11T08:52:42.092Z,18.90
2018-06-11T08:55:11.355Z,18.45
2018-06-11T08:57:39.702Z,17.98
2018-06-11T09:00:08.288Z,17.77
2018-06-11T09:02:36.597Z,18.55
2018-06-11T09:05:05.129Z,18.95
2018-06-11T09:07:33.549Z,18.98
2018-06-11T09:10:01.832Z,19.40
2018-06-11T09:12:30.125Z,19.66
2018-06-11T09:14:58.453Z,19.83
2018-06-11T09:17:26.845Z,19.59
2018-06-11T09:19:55.226Z,19.18
2018-06-11T09:22:23.542Z,19.54
2018-06-11T09:24:51.888Z,19.46
2018-06-11T09:27:20.225Z,19.55
2018-06-11T09:29:48.482Z,20.61
2018-06-11T09:32:16.909Z,19.55
2018-06-11T09:34:45.177Z,19.93
2018-06-11T09:37:13.606Z,20.39
2018-06-11T09:39:41.877Z,19.42
2018-06-11T09:42:11.229Z,19.86
2018-06-11T09:44:39.611Z,19.21
2018-06-11T09:47:07.889Z,18.71
2018-06-11T09:49:36.187Z,18.50
2018-06-11T09:52:04.483Z,18.43
2018-06-11T09:54:32.816Z,18.96
2018-06-11T09:57:01.093Z,19.79
2018-06-11T09:59:29.401Z,20.17
2018-06-11T10:01:57.673Z,20.93
2018-06-11T10:04:25.989Z,20.67
2018-06-11T10:06:54.257Z,19.92
2018-06-11T10:09:22.573Z,19.47
2018-06-11T10:11:51.906Z,20.61
2018-06-11T10:14:20.209Z,20.17
2018-06-11T10:16:48.489Z,20.22
2018-06-11T10:19:16.784Z,20.73
2018-06-11T10:21:45.053Z,20.30
2018-06-11T10:24:13.357Z,21.03
2018-06-11T10:26:41.689Z,20.77
2018-06-11T10:29:10.105Z,20.64
2018-06-11T10:31:38.381Z,19.80
2018-06-11T10:34:06.693Z,19.52
2018-06-11T10:36:34.969Z,18.91
2018-06-11T10:39:03.855Z,19.29
2018-06-11T10:41:33.181Z,19.42
2018-06-11T10:44:01.498Z,20.05
2018-06-11T10:46:29.789Z,19.53
2018-06-11T10:48:58.071Z,20.02
2018-06-11T10:51:26.393Z,19.84
2018-06-11T10:53:54.649Z,19.72
2018-06-11T10:56:22.969Z,19.34
2018-06-11T10:58:51.346Z,20.04
2018-06-11T11:01:20.789Z,19.93
2018-06-11T11:03:49.053Z,19.64
2018-06-11T11:06:21.177Z,19.84
2018-06-11T11:08:49.490Z,19.79
2018-06-11T11:11:17.742Z,20.97
2018-06-11T11:13:46.228Z,20.96
2018-06-11T11:16:14.533Z,21.40
2018-06-11T11:18:42.805Z,20.73
2018-06-11T11:21:11.073Z,20.42
2018-06-11T11:23:39.466Z,20.96
2018-06-11T11:26:07.756Z,20.50
2018-06-11T11:28:37.145Z,21.06
2018-06-11T11:31:06.465Z,21.24
2018-06-11T11:33:35.932Z,21.06
2018-06-11T11:36:04.209Z,20.71
2018-06-11T11:38:32.511Z,20.67
2018-06-11T11:41:00.879Z,20.55
2018-06-11T11:43:29.253Z,21.01
2018-06-11T11:45:57.611Z,21.10
2018-06-11T11:48:25.903Z,21.21
2018-06-11T11:50:54.268Z,21.36
2018-06-11T11:53:22.580Z,21.37
2018-06-11T11:55:51.865Z,21.03
2018-06-11T11:58:20.249Z,20.44
2018-06-11T12:00:49.579Z,20.94
2018-06-11T12:03:17.945Z,21.32
2018-06-11T12:05:46.411Z,21.05
2018-06-11T12:08:14.848Z,21.96
2018-06-11T12:10:43.164Z,21.05
2018-06-11T12:13:11.781Z,21.04
2018-06-11T12:15:40.245Z,21.91
2018-06-11T12:18:08.553Z,22.16
2018-06-11T12:20:36.836Z,21.28
2018-06-11T12:23:05.120Z,22.15
2018-06-11T12:25:33.437Z,21.64
2018-06-11T12:28:02.721Z,20.89
2018-06-11T12:30:31.117Z,21.62
2018-06-11T12:32:59.389Z,21.45
2018-06-11T12:35:27.705Z,20.85
2018-06-11T12:37:56.018Z,20.86
2018-06-11T12:40:24.346Z,21.26
2018-06-11T12:42:52.676Z,21.43
2018-06-11T12:45:22.041Z,21.62
2018-06-11T12:47:50.389Z,21.17
2018-06-11T12:50:18.822Z,20.88
2018-06-11T12:52:47.133Z,20.50
2018-06-11T12:55:15.492Z,20.42
2018-06-11T12:57:44.821Z,21.72
2018-06-11T13:00:13.245Z,21.98
2018-06-11T13:02:41.582Z,22.82
2018-06-11T13:05:09.858Z,21.98
2018-06-11T13:07:38.220Z,21.34
2018-06-11T13:10:06.609Z,21.79
2018-06-11T13:12:34.983Z,22.45
2018-06-11T13:15:03.247Z,22.05
2018-06-11T13:17:31.536Z,22.41
2018-06-11T13:19:59.801Z,21.82
2018-06-11T13:22:28.097Z,20.86
2018-06-11T13:24:56.373Z,21.30
2018-06-11T13:27:24.673Z,21.37
2018-06-11T13:29:52.925Z,21.51
2018-06-11T13:32:22.408Z,21.82
2018-06-11T13:34:50.798Z,21.82
2018-06-11T13:37:19.060Z,21.56
2018-06-11T13:39:47.353Z,22.17
2018-06-11T13:42:15.633Z,22.22
2018-06-11T13:44:44.041Z,24.06
2018-06-11T13:47:12.371Z,24.40
2018-06-11T13:49:40.790Z,23.34
2018-06-11T13:52:09.150Z,23.74
2018-06-11T13:54:37.634Z,23.60
2018-06-11T13:57:05.882Z,24.74
2018-06-11T13:59:34.367Z,25.69
2018-06-11T14:02:02.753Z,26.77
2018-06-11T14:04:31.194Z,22.68
2018-06-11T14:07:00.517Z,23.17
2018-06-11T14:09:32.205Z,24.97
2018-06-11T14:12:00.534Z,23.43
2018-06-11T14:14:28.817Z,23.27
2018-06-11T14:16:57.181Z,23.27
2018-06-11T14:19:25.504Z,22.56
2018-06-11T14:21:53.873Z,24.38
2018-06-11T14:24:22.171Z,24.81
2018-06-11T14:26:50.636Z,24.05
2018-06-11T14:29:18.896Z,24.91
2018-06-11T14:32:50.452Z,26.35
2018-06-11T14:35:22.849Z,24.47
2018-06-11T14:37:51.201Z,23.55
2018-06-11T14:40:19.593Z,26.88
2018-06-11T14:42:47.969Z,32.80
2018-06-11T14:45:17.312Z,27.41
2018-06-11T14:47:45.589Z,28.64
2018-06-11T14:50:13.929Z,30.51
2018-06-11T14:52:42.356Z,28.91
2018-06-11T14:55:10.822Z,25.50
2018-06-11T14:57:40.631Z,22.59
2018-06-11T15:00:12.324Z,21.93
2018-06-11T15:08:46.981Z,28.14
2018-06-11T15:11:16.552Z,30.42
2018-06-11T15:13:48.550Z,27.40
2018-06-11T15:16:17.315Z,28.96
2018-06-11T15:22:06.984Z,29.58
2018-06-11T15:27:27.863Z,29.07
2018-06-11T15:29:56.418Z,29.50
2018-06-11T15:32:25.109Z,24.39
2018-06-11T15:41:23.175Z,28.16
2018-06-11T15:48:46.873Z,28.81
2018-06-11T15:51:22.813Z,29.13
2018-06-11T15:53:53.563Z,26.89
2018-06-11T15:59:30.376Z,28.12
2018-06-11T16:02:13.436Z,24.65
2018-06-11T16:05:02.247Z,28.98
2018-06-11T16:07:30.545Z,27.94
2018-06-11T16:10:12.375Z,29.28
2018-06-11T16:12:40.641Z,32.10
2018-06-11T16:15:08.944Z,32.14
2018-06-11T16:17:37.355Z,32.64
2018-06-11T16:20:05.923Z,25.49
2018-06-11T16:25:29.150Z,24.70
2018-06-11T16:27:57.785Z,20.74
2018-06-11T16:30:31.602Z,20.56
2018-06-11T16:33:06.632Z,20.68
2018-06-11T16:35:48.608Z,24.75
2018-06-11T16:38:21.261Z,21.93
2018-06-11T16:40:59.209Z,22.82
2018-06-11T16:43:29.638Z,21.23
2018-06-11T16:45:57.893Z,23.15
2018-06-11T16:48:27.125Z,23.76
2018-06-11T16:50:55.486Z,21.02
2018-06-11T16:53:23.808Z,23.99
2018-06-11T16:55:53.252Z,21.62
2018-06-11T16:58:21.541Z,21.32
2018-06-11T17:00:49.845Z,19.44
2018-06-11T17:03:18.202Z,21.46
2018-06-11T17:05:46.781Z,20.66
2018-06-11T17:08:15.118Z,20.21
2018-06-11T17:10:46.055Z,19.86
2018-06-11T17:13:14.363Z,19.73
2018-06-11T17:15:42.720Z,20.57
2018-06-11T17:18:11.033Z,23.75
2018-06-11T17:20:39.367Z,20.29
2018-06-11T17:23:09.804Z,19.27
2018-06-11T17:25:38.197Z,19.34
2018-06-11T17:28:06.913Z,24.78
2018-06-11T17:30:35.223Z,25.41
2018-06-11T17:33:04.557Z,21.56
2018-06-11T17:35:32.858Z,19.04
2018-06-11T17:38:01.173Z,18.85
2018-06-11T17:40:29.500Z,18.32
2018-06-11T17:42:57.913Z,18.23
2018-06-11T17:45:26.269Z,18.44
2018-06-11T17:47:54.670Z,18.25
2018-06-11T17:50:22.987Z,17.80
2018-06-11T17:52:52.318Z,18.32
2018-06-11T17:55:20.613Z,18.51
2018-06-11T17:57:50.065Z,18.44
2018-06-11T18:00:18.376Z,18.73
2018-06-11T18:02:46.737Z,18.12
2018-06-11T18:05:15.046Z,17.66
2018-06-11T18:07:43.393Z,17.77
2018-06-11T18:10:11.791Z,17.73
2018-06-11T18:12:40.082Z,17.55
2018-06-11T18:15:08.381Z,17.84
2018-06-11T18:17:36.726Z,17.57
2018-06-11T18:20:05.098Z,17.53
2018-06-11T18:22:33.490Z,17.47
2018-06-11T18:25:01.840Z,17.42
2018-06-11T18:27:30.241Z,17.17
2018-06-11T18:29:58.598Z,17.43
2018-06-11T18:32:27.921Z,17.09
2018-06-11T18:34:56.197Z,17.00
2018-06-11T18:37:24.582Z,16.88
2018-06-11T18:39:52.865Z,16.78
2018-06-11T18:42:21.169Z,16.68
2018-06-11T18:44:49.462Z,16.79
2018-06-11T18:47:17.793Z,16.99
2018-06-11T18:49:46.128Z,17.00
2018-06-11T18:52:14.446Z,17.03
2018-06-11T18:54:42.782Z,16.80
2018-06-11T18:57:11.109Z,16.79
2018-06-11T18:59:39.473Z,16.33
2018-06-11T19:02:07.918Z,16.22
2018-06-11T19:04:36.211Z,16.19
2018-06-11T19:07:04.578Z,16.22
2018-06-11T19:09:32.892Z,15.99
2018-06-11T19:12:01.256Z,15.88
2018-06-11T19:14:29.649Z,16.00
2018-06-11T19:16:58.019Z,16.07
2018-06-11T19:19:26.408Z,15.86
2018-06-11T19:21:54.759Z,15.88
2018-06-11T19:24:23.177Z,15.90
2018-06-11T19:26:51.525Z,15.97
2018-06-11T19:29:19.938Z,15.82
2018-06-11T19:31:48.289Z,15.81
2018-06-11T19:34:18.626Z,15.57
2018-06-11T19:36:46.918Z,15.83
2018-06-11T19:39:15.273Z,15.82
2018-06-11T19:41:43.643Z,15.79
2018-06-11T19:44:12.021Z,15.87
2018-06-11T19:46:40.413Z,15.86
2018-06-11T19:49:09.804Z,15.81
2018-06-11T19:51:38.179Z,15.92
2018-06-11T19:54:07.541Z,15.86
2018-06-11T19:56:35.920Z,15.70
2018-06-11T19:59:05.244Z,15.68
2018-06-11T20:01:33.654Z,15.68
2018-06-11T20:04:02.107Z,15.69
2018-06-11T20:06:30.515Z,15.54
2018-06-11T20:09:00.491Z,15.55
2018-06-11T20:11:28.894Z,15.63
2018-06-11T20:13:57.277Z,15.63
2018-06-11T20:16:25.669Z,15.63
2018-06-11T20:18:54.023Z,15.47
2018-06-11T20:24:12.668Z,15.39
2018-06-11T20:26:40.970Z,15.23
2018-06-11T20:29:09.258Z,15.23
2018-06-11T20:31:37.585Z,15.30
2018-06-11T20:34:05.866Z,15.32
2018-06-11T20:36:34.172Z,15.29
2018-06-11T20:39:03.586Z,15.40
2018-06-11T20:41:32.997Z,15.34
2018-06-11T20:44:01.278Z,15.31
2018-06-11T20:46:30.721Z,15.11
2018-06-11T20:48:59.001Z,15.10
2018-06-11T20:51:27.297Z,14.96
2018-06-11T20:53:55.601Z,15.21
2018-06-11T20:56:29.655Z,15.06
2018-06-11T20:59:00.951Z,15.03
2018-06-11T21:01:29.351Z,15.04
2018-06-11T21:03:59.818Z,14.91
2018-06-11T21:06:28.258Z,14.82
2018-06-11T21:08:56.643Z,14.84
2018-06-11T21:11:24.918Z,14.86
2018-06-11T21:13:54.362Z,14.93
2018-06-11T21:16:22.661Z,14.93
2018-06-11T21:18:51.413Z,15.07
2018-06-11T21:21:19.743Z,15.04
2018-06-11T21:23:48.109Z,15.04
2018-06-11T21:26:16.512Z,15.11
2018-06-11T21:28:44.960Z,15.21
2018-06-11T21:31:13.335Z,15.02
2018-06-11T21:33:41.793Z,14.95
2018-06-11T21:36:10.123Z,14.94
2018-06-11T21:38:38.417Z,14.90
2018-06-11T21:41:14.991Z,14.97
2018-06-11T21:43:44.403Z,14.80
2018-06-11T21:46:15.317Z,14.87
2018-06-11T21:48:45.287Z,14.84
2018-06-11T21:51:17.292Z,14.77
2018-06-11T21:53:46.749Z,14.94
2018-06-11T21:56:16.178Z,14.88
2018-06-11T21:58:44.787Z,14.95
2018-06-11T22:01:13.242Z,15.03
2018-06-11T22:03:41.739Z,15.04
2018-06-11T22:06:12.090Z,15.14
2018-06-11T22:08:40.436Z,14.82
2018-06-11T22:11:08.802Z,14.78
2018-06-11T22:13:38.095Z,14.76
2018-06-11T22:16:06.529Z,14.77
2018-06-11T22:18:34.805Z,14.75
2018-06-11T22:21:03.091Z,14.72
2018-06-11T22:23:31.419Z,14.91
2018-06-11T22:25:59.743Z,14.77
2018-06-11T22:28:28.055Z,14.70
2018-06-11T22:30:56.352Z,14.74
2018-06-11T22:33:24.669Z,14.87
2018-06-11T22:35:53.989Z,14.81
2018-06-11T22:38:22.293Z,14.99
2018-06-11T22:40:51.604Z,15.11
2018-06-11T22:43:19.937Z,15.07
2018-06-11T22:45:48.225Z,15.00
2018-06-11T22:48:16.543Z,14.96
2018-06-11T22:50:44.884Z,14.80
2018-06-11T22:53:13.254Z,14.66
2018-06-11T22:55:41.538Z,14.94
2018-06-11T22:58:09.882Z,14.73
2018-06-11T23:00:38.161Z,14.86
2018-06-11T23:03:06.522Z,14.78
2018-06-11T23:05:34.824Z,14.79
2018-06-11T23:08:03.136Z,14.89
2018-06-11T23:10:31.448Z,14.72
2018-06-11T23:12:59.984Z,14.78
2018-06-11T23:15:28.330Z,14.69
2018-06-11T23:17:56.618Z,14.92
2018-06-11T23:20:25.942Z,14.89
2018-06-11T23:22:54.205Z,14.92
2018-06-11T23:25:22.571Z,14.98
2018-06-11T23:27:50.878Z,14.89
2018-06-11T23:30:20.181Z,14.88
2018-06-11T23:32:48.452Z,14.50
2018-06-11T23:35:16.745Z,14.68
2018-06-11T23:37:46.129Z,14.70
2018-06-11T23:40:14.493Z,14.70
2018-06-11T23:42:43.798Z,14.66
2018-06-11T23:45:13.113Z,14.50
2018-06-11T23:47:41.453Z,14.27
2018-06-11T23:50:13.053Z,14.38
2018-06-11T23:52:41.765Z,14.48
2018-06-11T23:55:11.115Z,14.48
2018-06-11T23:57:39.418Z,14.37
